Latest Weather Observations for Coldstream

IDV60901

Issued at 5:11 pm EST Tuesday 30 August 2016 (issued every 10 minutes, with the page automatically refreshed every 10 minutes)

About weather observations | Map of Melbourne area stations | Latest observations for Melbourne area | Other Formats
Station Details ID: 086383 Name: COLDSTREAM Lat: -37.72 Lon: 145.41 Height: 83.0 m
Data from the previous 72 hours. | See also: Recent months at Coldstream
Date/Time
EST
Temp
°C
App
Temp
°C
Dew
Point
°C
Rel
Hum
%
Delta-T
°C
Wind Press
QNH
hPa
Press
MSL
hPa
Rain since
9am
mm
Dir  Spd
km/h
Gust
km/h
Spd
kts
Gust
kts
30/05:00pm 15.6 9.9 8.4 62 3.7 NNE 28 46 15 25 1014.8 1014.9 0.0
30/04:57pm 15.8 10.0 8.1 60 3.9 NNE 28 46 15 25 1014.7 1014.8 0.0
30/04:30pm 15.3 11.1 8.1 62 3.6 N 20 35 11 19 1015.0 1015.1 0.0
30/04:00pm 15.9 11.7 8.4 61 3.8 N 20 33 11 18 1015.5 1015.6 0.0
30/03:30pm 15.0 12.5 8.0 63 3.5 NNE 11 17 6 9 1015.8 1015.9 0.0
30/03:00pm 15.6 13.4 7.9 60 3.9 NE 9 13 5 7 1016.1 1016.2 0.0
30/02:30pm 15.5 10.3 7.3 58 4.1 N 24 35 13 19 1016.5 1016.6 0.0
30/02:00pm 15.3 10.2 7.8 61 3.8 N 24 44 13 24 1017.1 1017.2 0.0
30/01:30pm 15.6 9.9 8.4 62 3.7 NNE 28 41 15 22 1017.2 1017.3 0.0
30/01:00pm 15.6 12.0 8.4 62 3.7 N 17 28 9 15 1017.6 1017.7 0.0
30/12:30pm 15.8 12.4 9.0 64 3.5 N 17 24 9 13 1018.1 1018.2 0.0
30/12:00pm 14.9 11.3 8.4 65 3.3 N 17 26 9 14 1018.9 1019.0 0.0
30/11:30am 14.3 11.4 8.0 66 3.1 N 13 20 7 11 1019.7 1019.8 0.0
30/11:00am 14.2 10.1 7.7 65 3.2 N 19 28 10 15 1020.3 1020.4 0.0
30/10:30am 13.9 12.2 8.5 70 2.7 NNE 7 13 4 7 1020.2 1020.3 0.0
30/10:00am 13.7 12.8 7.7 67 3.0 N 2 6 1 3 1020.5 1020.6 0.0
30/09:30am 14.0 13.2 8.0 67 3.0 N 2 7 1 4 1020.5 1020.6 0.0
30/09:00am 13.5 11.5 7.1 65 3.1 NE 7 17 4 9 1020.9 1021.0 0.0
30/08:30am 13.2 11.1 6.5 64 3.2 NE 7 11 4 6 1020.8 1020.9 0.0
30/08:00am 10.4 10.0 8.2 86 1.1 CALM 0 6 0 3 1021.0 1021.1 0.0
30/07:30am 9.2 7.9 7.8 91 0.7 ESE 4 9 2 5 1021.0 1021.1 0.0
30/07:00am 8.5 7.9 7.3 92 0.6 CALM 0 9 0 5 1020.9 1021.0 0.0
30/06:30am 8.5 6.7 7.0 90 0.7 E 6 7 3 4 1021.2 1021.3 0.0
30/06:00am 8.4 7.4 7.2 92 0.6 SSE 2 9 1 5 1021.2 1021.3 0.0
30/05:30am 8.2 7.1 7.1 93 0.5 SE 2 9 1 5 1020.8 1020.9 0.0
30/05:00am 8.0 6.6 7.1 94 0.4 SSW 4 7 2 4 1020.9 1021.0 0.0
30/04:30am 7.7 6.7 7.3 97 0.2 S 2 9 1 5 1020.4 1020.5 0.0
30/04:00am 6.6 5.4 6.5 99 0.0 SE 2 6 1 3 1020.5 1020.6 0.0
30/03:30am 6.3 5.4 6.2 99 0.0 CALM 0 0 0 0 1020.9 1021.0 0.0
30/03:00am 6.2 5.3 6.1 99 0.0 CALM 0 0 0 0 1021.5 1021.6 0.0
30/02:30am 5.9 4.9 5.8 99 0.0 CALM 0 0 0 0 1021.6 1021.7 0.0
30/02:00am 5.7 3.6 5.6 99 0.0 N 6 9 3 5 1021.7 1021.9 0.0
30/01:30am 4.9 3.7 4.5 97 0.2 CALM 0 0 0 0 1021.9 1022.1 0.0
30/01:00am 4.4 3.0 3.8 96 0.2 CALM 0 6 0 3 1022.1 1022.3 0.0
30/12:30am 5.5 2.6 4.9 96 0.3 NNW 9 13 5 7 1022.5 1022.7 0.0
30/12:00am 5.5 3.5 4.6 94 0.4 SSE 4 7 2 4 1022.4 1022.6 0.0
 
Date/Time
EST
Temp
°C
App
Temp
°C
Dew
Point
°C
Rel
Hum
%
Delta-T
°C
Wind Press
QNH
hPa
Press
MSL
hPa
Rain since
9am
mm
Dir  Spd
km/h
Gust
km/h
Spd
kts
Gust
kts
29/11:30pm 6.0 4.9 5.0 93 0.4 CALM 0 0 0 0 1022.8 1023.0 0.0
29/11:00pm 7.0 5.3 5.8 92 0.5 NE 4 7 2 4 1023.0 1023.2 0.0
29/10:30pm 6.6 5.2 5.4 92 0.5 S 2 6 1 3 1023.0 1023.2 0.0
29/10:00pm 6.7 5.7 5.5 92 0.5 CALM 0 0 0 0 1023.0 1023.2 0.0
29/09:30pm 7.3 6.3 5.8 90 0.7 CALM 0 0 0 0 1022.9 1023.1 0.0
29/09:00pm 7.5 5.9 6.3 92 0.5 S 4 9 2 5 1023.0 1023.2 0.0
29/08:30pm 7.2 6.3 6.1 93 0.5 CALM 0 0 0 0 1022.9 1023.1 0.0
29/08:00pm 6.6 4.8 5.4 92 0.5 S 4 7 2 4 1023.3 1023.5 0.0
29/07:30pm 6.8 5.7 5.1 89 0.8 CALM 0 0 0 0 1023.1 1023.3 0.0
29/07:00pm 8.2 6.9 6.0 86 1.0 SE 2 7 1 4 1022.4 1022.6 0.0
29/06:30pm 9.2 8.3 5.9 80 1.5 CALM 0 0 0 0 1022.2 1022.4 0.0
29/06:00pm 12.2 11.2 5.8 65 3.0 CALM 0 4 0 2 1022.2 1022.4 0.0
29/05:30pm 15.7 11.7 5.0 49 5.1 N 15 20 8 11 1022.0 1022.2 0.0
29/05:00pm 16.7 13.6 5.6 48 5.3 N 11 15 6 8 1022.1 1022.3 0.0
29/04:30pm 16.0 12.7 6.2 52 4.8 NNW 13 22 7 12 1022.4 1022.6 0.0
29/04:00pm 18.1 14.0 6.0 45 5.9 N 17 24 9 13 1022.4 1022.6 0.0
29/03:30pm 18.4 14.1 6.9 47 5.8 NNW 19 30 10 16 1022.2 1022.4 0.0
29/03:00pm 18.3 14.2 6.2 45 6.0 N 17 26 9 14 1021.9 1022.1 0.0
29/02:30pm 17.0 13.0 6.8 51 5.1 N 17 28 9 15 1022.2 1022.4 0.0
29/02:00pm 18.4 14.6 7.5 49 5.5 NNW 17 24 9 13 1022.4 1022.6 0.0
29/01:30pm 18.3 14.0 7.7 50 5.4 N 20 33 11 18 1022.7 1022.9 0.0
29/01:00pm 17.9 13.5 6.4 47 5.7 NNW 19 30 10 16 1023.0 1023.2 0.0
29/12:30pm 18.0 15.7 7.4 50 5.4 NNW 9 19 5 10 1023.3 1023.5 0.0
29/12:00pm 16.6 12.5 6.4 51 5.0 NNW 17 24 9 13 1023.9 1024.1 0.0
29/11:30am 17.4 13.3 7.7 53 4.9 N 19 30 10 16 1024.1 1024.3 0.0
29/11:00am 17.3 13.5 7.4 52 5.0 N 17 28 9 15 1024.5 1024.7 0.0
29/10:30am 16.4 16.6 10.5 68 3.1 CALM 0 6 0 3 1024.8 1025.0 0.0
29/10:00am 14.0 13.0 7.5 65 3.2 ESE 2 7 1 4 1025.2 1025.4 0.0
29/09:30am 12.2 11.5 7.1 71 2.5 CALM 0 0 0 0 1025.5 1025.7 0.0
29/09:00am 11.9 10.9 7.2 73 2.3 SSE 2 7 1 4 1025.5 1025.7 0.0
29/08:30am 9.8 8.2 8.1 89 0.8 SSE 6 9 3 5 1025.3 1025.5 0.0
29/08:00am 7.3 6.7 7.2 99 0.0 CALM 0 0 0 0 1025.0 1025.2 0.0
29/07:30am 4.8 3.2 4.7 99 0.0 S 2 6 1 3 1024.6 1024.8 0.0
29/07:00am 3.3 1.5 3.2 99 0.0 S 2 7 1 4 1024.1 1024.3 0.0
29/06:30am 4.8 2.3 4.7 99 0.0 S 7 9 4 5 1023.7 1023.9 0.0
29/06:00am 4.2 2.9 4.1 99 0.0 CALM 0 0 0 0 1023.5 1023.7 0.0
29/05:30am 3.3 1.8 3.2 99 0.0 CALM 0 0 0 0 1023.3 1023.5 0.0
29/05:00am 3.6 1.4 3.5 99 0.0 SSE 4 7 2 4 1023.1 1023.3 0.0
29/04:30am 3.2 1.3 3.1 99 0.0 SSE 2 7 1 4 1022.8 1023.0 0.0
29/04:00am 3.4 2.0 3.3 99 0.0 CALM 0 0 0 0 1022.7 1022.9 0.0
29/03:30am 3.1 1.6 2.8 98 0.1 CALM 0 7 0 4 1022.8 1023.0 0.0
29/03:00am 3.3 1.4 3.0 98 0.1 S 2 11 1 6 1022.8 1023.0 0.0
29/02:30am 3.2 1.7 2.8 97 0.2 CALM 0 6 0 3 1022.9 1023.1 0.0
29/02:00am 4.6 2.6 4.2 97 0.2 SSE 4 7 2 4 1023.0 1023.2 0.0
29/01:30am 4.2 2.8 3.6 96 0.2 CALM 0 0 0 0 1023.1 1023.3 0.0
29/01:00am 4.9 3.6 4.0 94 0.4 CALM 0 0 0 0 1022.9 1023.1 0.0
29/12:30am 6.9 6.1 6.3 96 0.3 CALM 0 0 0 0 1022.7 1022.9 0.0
29/12:00am 6.2 4.8 5.3 94 0.4 S 2 6 1 3 1022.6 1022.8 0.0
 
Date/Time
EST
Temp
°C
App
Temp
°C
Dew
Point
°C
Rel
Hum
%
Delta-T
°C
Wind Press
QNH
hPa
Press
MSL
hPa
Rain since
9am
mm
Dir  Spd
km/h
Gust
km/h
Spd
kts
Gust
kts
28/11:30pm 6.4 5.4 5.4 93 0.4 CALM 0 0 0 0 1022.7 1022.9 0.0
28/11:00pm 6.7 5.6 5.0 89 0.7 CALM 0 0 0 0 1022.5 1022.7 0.0
28/10:30pm 7.9 6.9 5.7 86 1.0 CALM 0 6 0 3 1022.6 1022.8 0.0
28/10:00pm 10.5 8.4 6.5 76 1.9 N 7 11 4 6 1022.5 1022.7 0.0
28/09:30pm 10.9 9.0 6.5 74 2.1 N 6 11 3 6 1022.3 1022.5 0.0
28/09:00pm 11.4 9.5 6.5 72 2.3 NNE 6 15 3 8 1022.0 1022.2 0.0
28/08:30pm 11.9 9.5 6.8 71 2.4 NNE 9 13 5 7 1021.6 1021.7 0.0
28/08:00pm 9.0 7.2 7.3 89 0.8 N 6 11 3 6 1021.3 1021.4 0.0
28/07:30pm 9.0 7.9 6.8 86 1.0 NE 2 7 1 4 1021.2 1021.3 0.0
28/07:00pm 9.5 8.6 6.0 79 1.6 CALM 0 6 0 3 1021.1 1021.2 0.0
28/06:30pm 11.0 9.8 6.4 73 2.2 NE 2 13 1 7 1020.6 1020.7 0.0
28/06:00pm 12.7 11.0 7.6 71 2.5 NNE 6 7 3 4 1020.3 1020.4 0.0
28/05:30pm 14.2 12.3 7.7 65 3.2 NNE 7 15 4 8 1019.9 1020.0 0.0
28/05:00pm 15.2 12.2 7.7 61 3.7 NNE 13 20 7 11 1019.8 1019.9 0.0
28/04:30pm 14.6 11.3 7.9 64 3.3 N 15 20 8 11 1019.7 1019.8 0.0
28/04:00pm 14.7 11.4 8.2 65 3.3 N 15 20 8 11 1019.6 1019.7 0.0
28/03:30pm 14.9 11.0 7.0 59 3.9 N 17 22 9 12 1019.6 1019.7 0.0
28/03:00pm 14.5 10.5 6.8 60 3.7 N 17 22 9 12 1019.5 1019.6 0.0
28/02:30pm 16.3 12.2 6.4 52 4.9 NNE 17 26 9 14 1019.4 1019.5 0.0
28/02:00pm 16.4 12.8 6.8 53 4.7 NNE 15 20 8 11 1019.4 1019.5 0.0
28/01:30pm 16.0 12.1 7.0 55 4.5 N 17 24 9 13 1019.6 1019.7 0.0
28/01:00pm 15.3 11.5 5.8 53 4.6 N 15 22 8 12 1020.0 1020.1 0.0
28/12:30pm 14.9 11.2 6.2 56 4.2 N 15 24 8 13 1020.6 1020.7 0.0
28/12:00pm 14.6 10.5 6.2 57 4.0 NNE 17 24 9 13 1020.8 1020.9 0.0
28/11:30am 13.7 9.5 5.6 58 3.8 N 17 24 9 13 1021.0 1021.1 0.0
28/11:00am 13.9 10.8 5.5 57 4.0 NNE 11 17 6 9 1021.1 1021.2 0.0
28/10:30am 13.8 10.5 6.4 61 3.6 NE 13 22 7 12 1021.0 1021.1 0.0
28/10:00am 12.3 9.2 5.7 64 3.1 NE 11 17 6 9 1021.1 1021.2 0.0
28/09:30am 11.6 8.4 5.0 64 3.0 NNE 11 17 6 9 1021.1 1021.2 0.0
28/09:00am 11.2 8.3 4.9 65 2.9 NNE 9 19 5 10 1021.0 1021.1 0.0
28/08:30am 10.8 6.6 4.0 63 3.0 NNE 15 20 8 11 1020.8 1020.9 0.0
28/08:00am 10.7 6.9 4.0 63 3.0 NNE 13 20 7 11 1020.7 1020.8 0.0
28/07:30am 10.4 7.3 3.7 63 3.0 NNE 9 17 5 9 1020.7 1020.8 0.0
28/07:00am 10.2 7.1 3.7 64 2.9 NNE 9 17 5 9 1020.4 1020.5 0.0
28/06:30am 10.1 6.6 3.6 64 2.9 N 11 20 6 11 1020.2 1020.3 0.0
28/06:00am 10.2 6.4 3.7 64 2.9 N 13 20 7 11 1019.7 1019.8 0.0
28/05:30am 9.6 5.8 3.8 67 2.5 N 13 19 7 10 1019.6 1019.7 0.0
28/05:00am 10.0 6.9 3.5 64 2.8 NNE 9 15 5 8 1019.7 1019.8 0.0
28/04:30am 10.0 7.3 3.7 65 2.8 N 7 13 4 7 1019.5 1019.6 0.0
28/04:00am 10.3 5.7 3.8 64 2.9 N 17 26 9 14 1019.3 1019.4 0.0
28/03:30am 10.3 6.1 3.8 64 2.9 N 15 28 8 15 1019.2 1019.3 0.0
28/03:00am 9.9 6.1 4.1 67 2.6 N 13 20 7 11 1019.0 1019.1 0.0
28/02:30am 9.7 6.0 4.3 69 2.4 N 13 20 7 11 1019.2 1019.3 0.0
28/02:00am 10.0 6.3 4.2 67 2.6 N 13 22 7 12 1019.4 1019.5 0.0
28/01:30am 10.1 5.6 4.0 66 2.7 N 17 28 9 15 1019.6 1019.7 0.0
28/01:00am 10.3 5.8 4.2 66 2.7 N 17 28 9 15 1019.8 1019.9 0.0
28/12:30am 10.3 6.2 4.5 67 2.6 N 15 22 8 12 1019.8 1019.9 0.0
28/12:00am 10.2 6.5 4.6 68 2.5 NNW 13 22 7 12 1020.0 1020.1 0.0
 
Date/Time
EST
Temp
°C
App
Temp
°C
Dew
Point
°C
Rel
Hum
%
Delta-T
°C
Wind Press
QNH
hPa
Press
MSL
hPa
Rain since
9am
mm
Dir  Spd
km/h
Gust
km/h
Spd
kts
Gust
kts
27/11:30pm 9.8 6.1 4.6 70 2.3 N 13 19 7 10 1019.9 1020.0 0.0
27/11:00pm 9.7 5.6 4.5 70 2.3 N 15 20 8 11 1020.0 1020.1 0.0
27/10:30pm 10.0 5.9 4.6 69 2.4 N 15 22 8 12 1020.4 1020.5 0.0
27/10:00pm 9.6 5.9 4.6 71 2.2 N 13 19 7 10 1020.5 1020.6 0.0
27/09:30pm 10.0 6.3 4.6 69 2.4 N 13 19 7 10 1021.0 1021.1 0.0
27/09:00pm 9.7 6.1 4.9 72 2.2 N 13 20 7 11 1021.0 1021.1 0.0
27/08:30pm 9.9 5.9 4.7 70 2.3 N 15 22 8 12 1020.8 1020.9 0.0
27/08:00pm 9.9 5.9 4.7 70 2.3 N 15 24 8 13 1020.7 1020.8 0.0
27/07:30pm 10.4 7.1 4.8 68 2.5 N 11 17 6 9 1020.5 1020.6 0.0
27/07:00pm 10.5 7.2 4.6 67 2.7 N 11 24 6 13 1020.1 1020.2 0.0
27/06:30pm 10.0 6.3 4.6 69 2.4 N 13 20 7 11 1019.9 1020.0 0.0
27/06:00pm 11.1 7.4 4.6 64 2.9 NNW 13 20 7 11 1019.7 1019.8 0.0
27/05:30pm 11.7 8.1 4.9 63 3.1 N 13 22 7 12 1019.5 1019.6 0.0

Latest Capital City Observations: Canberra | Sydney | Melbourne | Brisbane | Adelaide | Perth | Hobart | Darwin

Other Formats:

Comma delimited format used in spreadsheet applications
http://www.bom.gov.au/fwo/IDV60901/IDV60901.94864.axf

JavaScript Object Notation format (JSON) in row-major order
http://www.bom.gov.au/fwo/IDV60901/IDV60901.94864.json